Warwick, RI

5:48 PM EDT on May 30, 2015 (GMT -0400)
Cedar Tree Point | | Change Station
CLOSE
Current Station
Personal Weather Station
Location: Warwick, RI
Elevation: 6 ft
Nearby Weather Stations

Elev 6 ft 41.69 °N, 71.44 °W | Updated 13 minutes ago

Partly Cloudy
Partly Cloudy
77.4 °F
Feels Like 79 °F
N
3.0
Wind Variable Wind from SE
Gusts 21.0 mph

Today
High -- | Low -- °F
--% Chance of Precip.
Yesterday
High -- | Low -- °F
Precip. -- in
5:14 AM 8:12 PM
Waxing Gibbous, 92% visible
Pressure 30.11 in
Visibility 10.0 miles
Clouds Few 3900 ft
Few 30000 ft
Heat Index 79 °F
Dew Point 66 °F
Humidity 67%
Rainfall 0.00 in
Snow Depth Not available.
UV 4 out of 12
Pollen 9.50 out of 12
Air Quality Not available.
Flu Activity No Activity
METAR KPVD 302051Z 22019G28KT 10SM FEW039 FEW300 27/17 A3011 RMK AO2 PK WND 21029/2024 SLP196 T02670167 56014

More Conditions Fewer Conditions

Pressure 30.11 in
Visibility 10.0 miles
Clouds Few 3900 ft
Few 30000 ft
Heat Index 79 °F
Dew Point 66 °F
Humidity 67%
Rainfall 0.00 in
Snow Depth Not available.
UV 4 out of 12
Pollen 9.50 out of 12
Air Quality Not available.
Flu Activity No Activity
METAR KPVD 302051Z 22019G28KT 10SM FEW039 FEW300 27/17 A3011 RMK AO2 PK WND 21029/2024 SLP196 T02670167 56014

More Conditions Fewer Conditions

10-Day Weather Forecast

Almanac

Astronomy

May. 30, 2015 Rise Set
Actual Time
Civil Twilight
Nautical Twilight
Astronomical Twilight
Moon
Length of Visible Light
Length of Day
Tomorrow will be .
, % of the Moon is Illuminated

Today's Extremes

State Highs State Lows

Community

WunderPhotos

Upload Photos

1,825,608 photos uploaded!

WunderBlogs® & News

Nearby

Air Quality

  Air Quality AQ Index Pollutant
Not available.

Snow Depth

Station Depth Elevation

Earthquake Activity

City Distance Mag. Time & Date
Minimum magnitude displayed is 2.5.

Coastal Water Temperatures

Place Temperature

Stations

Nearby Weather Stations

Station Location Temp. Windchill Dew Point Humidity Wind Precip. Elev Updated Type